Time;durP1;ratioP1;P1;durP2;ratioP2;P2;SDS_P1;SDS_P2;PMS_P1;PMS_P2;Temp;Humidity;BMP_temperature;BMP_pressure;BME280_temperature;BME280_humidity;BME280_pressure;Samples;Min_cycle;Max_cycle;Signal;HPM_P1;HPM_P2
2021/07/20 00:01:42;;;;;;;29.90;16.40;;;14.10;99.90;;;;;;5025961;28;20022;-62
2021/07/20 00:04:08;;;;;;;26.13;16.55;;;14.00;99.90;;;;;;5028763;28;20033;-63
2021/07/20 00:06:33;;;;;;;25.50;15.85;;;14.00;99.90;;;;;;5029842;28;20569;-62
2021/07/20 00:08:59;;;;;;;25.35;16.25;;;14.00;99.90;;;;;;5027275;28;20495;-60
2021/07/20 00:11:25;;;;;;;28.27;16.63;;;14.00;99.90;;;;;;5026198;28;20045;-63
2021/07/20 00:13:50;;;;;;;25.20;15.88;;;13.90;99.90;;;;;;5026756;28;20461;-62
2021/07/20 00:16:16;;;;;;;29.23;16.77;;;13.90;99.90;;;;;;5025626;28;20030;-61
2021/07/20 00:18:41;;;;;;;28.80;17.13;;;13.80;99.90;;;;;;5028101;28;20403;-63
2021/07/20 00:21:09;;;;;;;30.08;16.75;;;13.80;99.90;;;;;;5030481;28;20022;-60
2021/07/20 00:23:35;;;;;;;25.20;16.77;;;13.80;99.90;;;;;;5004404;28;20041;-60
2021/07/20 00:26:02;;;;;;;26.80;15.95;;;13.70;99.90;;;;;;5026341;28;20026;-61
2021/07/20 00:28:27;;;;;;;34.20;17.60;;;13.70;99.90;;;;;;5036802;28;20096;-62
2021/07/20 00:30:53;;;;;;;30.25;17.17;;;13.70;99.90;;;;;;5025939;28;20562;-61
2021/07/20 00:33:20;;;;;;;34.25;19.65;;;13.70;99.90;;;;;;5015683;28;20112;-61
2021/07/20 00:35:46;;;;;;;26.50;16.83;;;13.60;99.90;;;;;;5015332;28;20168;-62
2021/07/20 00:38:12;;;;;;;34.83;17.58;;;13.60;99.90;;;;;;5016294;28;20093;-62
2021/07/20 00:40:38;;;;;;;30.45;18.02;;;13.60;99.90;;;;;;5015709;28;20030;-61
2021/07/20 00:43:05;;;;;;;29.50;19.55;;;13.50;99.90;;;;;;4997605;28;20017;-61
2021/07/20 00:45:31;;;;;;;35.30;17.27;;;13.50;99.90;;;;;;5018608;28;20083;-62
2021/07/20 00:47:57;;;;;;;33.10;18.75;;;13.50;99.90;;;;;;5019930;28;20034;-62
2021/07/20 00:50:28;;;;;;;31.88;18.02;;;13.40;99.90;;;;;;5018165;28;20040;-61
2021/07/20 00:52:54;;;;;;;31.77;19.90;;;13.40;99.90;;;;;;4994418;28;20029;-61
2021/07/20 00:55:20;;;;;;;34.17;19.65;;;13.30;99.90;;;;;;5008482;28;20858;-62
2021/07/20 00:57:47;;;;;;;36.75;20.80;;;13.30;99.90;;;;;;5014459;28;20026;-62
2021/07/20 01:00:16;;;;;;;30.48;19.65;;;13.30;99.90;;;;;;5020912;28;20030;-61
2021/07/20 01:02:42;;;;;;;36.15;19.52;;;13.30;99.90;;;;;;5000140;28;20057;-62
2021/07/20 01:05:14;;;;;;;31.98;18.63;;;13.30;99.90;;;;;;5025828;28;20029;-60
2021/07/20 01:07:43;;;;;;;35.13;20.13;;;13.30;99.90;;;;;;5029176;28;20060;-62
2021/07/20 01:10:09;;;;;;;30.05;19.05;;;13.30;99.90;;;;;;5022003;28;20025;-61
2021/07/20 01:12:38;;;;;;;29.60;19.30;;;13.30;99.90;;;;;;5022451;28;20061;-60
2021/07/20 01:15:06;;;;;;;31.20;19.70;;;13.30;99.90;;;;;;5029211;28;20052;-61
2021/07/20 01:17:34;;;;;;;34.22;19.98;;;13.30;99.90;;;;;;5022565;28;20060;-61
2021/07/20 01:20:00;;;;;;;32.50;18.60;;;13.30;99.90;;;;;;5026336;28;20410;-61
2021/07/20 01:22:34;;;;;;;30.25;19.50;;;13.20;99.90;;;;;;5022619;28;20018;-63
2021/07/20 01:25:01;;;;;;;30.10;18.80;;;13.20;99.90;;;;;;5029364;28;20046;-60
2021/07/20 01:27:28;;;;;;;32.00;18.27;;;13.20;99.90;;;;;;5025560;28;20025;-62
2021/07/20 01:29:54;;;;;;;37.10;19.02;;;13.10;99.90;;;;;;5023936;28;20037;-61
2021/07/20 01:32:21;;;;;;;36.35;20.67;;;13.10;99.90;;;;;;5003958;28;20022;-60
2021/07/20 01:34:48;;;;;;;32.05;19.70;;;13.10;99.90;;;;;;5026405;28;20160;-63
2021/07/20 01:37:16;;;;;;;36.70;20.05;;;13.00;99.90;;;;;;5024740;28;20494;-61
2021/07/20 01:39:43;;;;;;;31.85;20.23;;;13.00;99.90;;;;;;5023660;28;20064;-62
2021/07/20 01:42:09;;;;;;;29.10;18.98;;;13.00;99.90;;;;;;5028568;28;20025;-61
2021/07/20 01:44:35;;;;;;;38.03;21.27;;;12.90;99.90;;;;;;5016851;28;20100;-61
2021/07/20 01:47:01;;;;;;;34.03;19.20;;;12.90;99.90;;;;;;5002824;28;20025;-61
2021/07/20 01:49:28;;;;;;;37.50;20.42;;;12.90;99.90;;;;;;5023904;28;20478;-61
2021/07/20 01:51:54;;;;;;;32.90;19.42;;;12.80;99.90;;;;;;5027756;28;20021;-61
2021/07/20 01:54:20;;;;;;;30.70;18.70;;;12.80;99.90;;;;;;5023513;28;20032;-60
2021/07/20 01:56:47;;;;;;;38.10;19.65;;;12.80;99.90;;;;;;5028057;28;20033;-61
2021/07/20 01:59:12;;;;;;;37.30;20.08;;;12.70;99.90;;;;;;5026561;28;20016;-62
2021/07/20 02:01:50;;;;;;;31.63;18.85;;;12.60;99.90;;;;;;5027400;28;20025;-62
2021/07/20 02:09:34;;;;;;;28.95;18.90;;;12.60;99.90;;;;;;5027841;28;20155;-61
2021/07/20 02:12:10;;;;;;;35.72;20.38;;;12.50;99.90;;;;;;5026401;28;20034;-61
2021/07/20 02:14:41;;;;;;;38.80;20.50;;;12.50;99.90;;;;;;5028963;28;20152;-61
2021/07/20 02:17:08;;;;;;;37.38;20.08;;;12.40;99.90;;;;;;5030396;28;20025;-58
2021/07/20 02:19:37;;;;;;;29.05;18.05;;;12.30;99.90;;;;;;5031212;28;20021;-62
2021/07/20 02:22:05;;;;;;;28.95;17.75;;;12.30;99.90;;;;;;5031462;28;20030;-61
2021/07/20 02:24:32;;;;;;;45.00;20.15;;;12.20;99.90;;;;;;5018182;28;20029;-62
2021/07/20 02:27:04;;;;;;;36.88;18.60;;;12.20;99.90;;;;;;5026988;28;20026;-61
2021/07/20 02:29:30;;;;;;;28.58;18.70;;;12.20;99.90;;;;;;5018739;28;22091;-63
2021/07/20 02:31:58;;;;;;;32.40;19.25;;;12.10;99.90;;;;;;5024624;28;20026;-62
2021/07/20 02:34:28;;;;;;;29.25;17.27;;;12.10;99.90;;;;;;5021321;28;20049;-62
2021/07/20 02:36:55;;;;;;;30.42;18.70;;;12.00;99.90;;;;;;5017486;28;20433;-62
2021/07/20 02:39:23;;;;;;;29.13;17.13;;;12.00;99.90;;;;;;5027892;28;20025;-62
2021/07/20 02:41:51;;;;;;;29.20;18.30;;;12.00;99.90;;;;;;5019354;28;20025;-61
2021/07/20 02:44:17;;;;;;;32.80;19.13;;;11.90;99.90;;;;;;5024558;28;20030;-62
2021/07/20 02:46:43;;;;;;;41.13;18.45;;;11.90;99.90;;;;;;5022190;28;20017;-62
2021/07/20 02:49:11;;;;;;;26.90;17.60;;;11.90;99.90;;;;;;5012713;28;20041;-63
2021/07/20 02:51:37;;;;;;;34.00;18.67;;;11.80;99.90;;;;;;5027459;28;20093;-62
2021/07/20 02:54:04;;;;;;;37.83;20.35;;;11.70;99.90;;;;;;5003225;28;20034;-58
2021/07/20 02:56:30;;;;;;;37.60;19.88;;;11.80;99.90;;;;;;5027160;28;20029;-61
2021/07/20 02:59:01;;;;;;;39.63;19.10;;;11.80;99.90;;;;;;5017237;28;20022;-62
2021/07/20 03:01:27;;;;;;;39.85;20.70;;;11.80;99.90;;;;;;5021046;28;20113;-60
2021/07/20 03:03:53;;;;;;;43.78;22.00;;;11.80;99.90;;;;;;5020895;28;20112;-61
2021/07/20 03:06:22;;;;;;;32.58;19.88;;;11.80;99.90;;;;;;5016918;28;20087;-61
2021/07/20 03:08:48;;;;;;;29.85;18.45;;;11.80;99.90;;;;;;5023862;28;20045;-62
2021/07/20 03:11:15;;;;;;;31.98;19.20;;;11.80;99.90;;;;;;5017117;28;20042;-62
2021/07/20 03:13:45;;;;;;;36.72;20.33;;;11.80;99.90;;;;;;5018289;28;20018;-63
2021/07/20 03:16:12;;;;;;;31.25;20.38;;;11.80;99.90;;;;;;5023380;28;20112;-60
2021/07/20 03:18:42;;;;;;;32.75;19.55;;;11.80;99.90;;;;;;5015630;28;20033;-62
2021/07/20 03:21:08;;;;;;;38.55;21.05;;;11.70;99.90;;;;;;5006894;28;20033;-61
2021/07/20 03:23:34;;;;;;;37.63;19.83;;;11.80;99.90;;;;;;5003052;28;20161;-62
2021/07/20 03:26:01;;;;;;;36.28;21.17;;;11.80;99.90;;;;;;5017721;28;20099;-61
2021/07/20 03:28:28;;;;;;;37.55;20.70;;;11.80;99.90;;;;;;5019784;28;20033;-62
2021/07/20 03:30:54;;;;;;;42.42;20.65;;;11.80;99.90;;;;;;5019531;28;20037;-62
2021/07/20 03:33:23;;;;;;;39.80;22.55;;;11.70;99.90;;;;;;5025350;28;20052;-61
2021/07/20 03:35:50;;;;;;;41.13;22.23;;;11.80;99.90;;;;;;5016208;28;21873;-62
2021/07/20 03:38:18;;;;;;;37.42;22.35;;;11.80;99.90;;;;;;5025488;28;20036;-61
2021/07/20 03:40:46;;;;;;;40.97;23.48;;;11.80;99.90;;;;;;5021764;28;20030;-60
2021/07/20 03:43:12;;;;;;;48.00;24.45;;;11.80;99.90;;;;;;5022843;28;20038;-60
2021/07/20 03:45:38;;;;;;;46.55;25.23;;;11.80;99.90;;;;;;5022936;28;20127;-62
2021/07/20 03:48:04;;;;;;;44.90;25.17;;;11.90;99.90;;;;;;5016292;28;20459;-62
2021/07/20 03:50:30;;;;;;;49.70;24.35;;;11.90;99.90;;;;;;5023464;28;20040;-58
2021/07/20 03:52:58;;;;;;;44.85;23.95;;;12.00;99.90;;;;;;5021955;28;20041;-60
2021/07/20 03:55:24;;;;;;;38.53;22.83;;;12.00;99.90;;;;;;5022456;28;20375;-61
2021/07/20 03:57:51;;;;;;;40.70;21.83;;;12.10;99.90;;;;;;5022390;28;20026;-61
2021/07/20 04:00:17;;;;;;;38.35;22.35;;;12.10;99.90;;;;;;5020480;28;20379;-62
2021/07/20 04:02:48;;;;;;;40.33;21.25;;;12.10;99.90;;;;;;5025460;28;20036;-61
2021/07/20 04:05:15;;;;;;;35.13;20.05;;;12.10;99.90;;;;;;5014857;28;20060;-61
2021/07/20 04:07:42;;;;;;;34.10;20.40;;;12.10;99.90;;;;;;5020547;28;20025;-62
2021/07/20 04:10:09;;;;;;;32.72;19.50;;;12.10;99.90;;;;;;5022570;28;20037;-61
2021/07/20 04:12:35;;;;;;;28.00;17.55;;;12.10;99.90;;;;;;5017672;28;20030;-62
2021/07/20 04:15:01;;;;;;;32.20;17.25;;;12.20;99.90;;;;;;5025505;28;20025;-60
2021/07/20 04:17:28;;;;;;;26.50;16.98;;;12.20;99.90;;;;;;5017085;28;20021;-60
2021/07/20 04:19:54;;;;;;;29.92;17.42;;;12.20;99.90;;;;;;5022707;28;20088;-60
2021/07/20 04:22:20;;;;;;;32.75;18.40;;;12.20;99.90;;;;;;5019622;28;20088;-62
2021/07/20 04:24:47;;;;;;;31.05;18.65;;;12.20;99.90;;;;;;5018229;28;21778;-60
2021/07/20 04:27:12;;;;;;;30.45;18.80;;;12.30;99.90;;;;;;5023316;28;20053;-62
2021/07/20 04:29:39;;;;;;;29.70;17.90;;;12.40;99.90;;;;;;5016429;28;20755;-63
2021/07/20 04:32:06;;;;;;;36.10;17.95;;;12.40;99.90;;;;;;5024746;28;20040;-62
2021/07/20 04:34:34;;;;;;;24.73;16.73;;;12.50;99.90;;;;;;5016557;28;20038;-62
2021/07/20 04:37:01;;;;;;;26.13;16.60;;;12.60;99.90;;;;;;5018302;28;20045;-62
2021/07/20 04:39:28;;;;;;;27.38;15.68;;;13.00;99.90;;;;;;5022281;28;20026;-62
2021/07/20 04:41:54;;;;;;;23.42;14.95;;;13.50;99.90;;;;;;5015350;28;20116;-63
2021/07/20 04:44:21;;;;;;;27.77;14.75;;;14.10;99.90;;;;;;5028565;28;20048;-62
2021/07/20 04:46:47;;;;;;;22.30;14.23;;;14.60;99.90;;;;;;5002959;28;20038;-61
2021/07/20 04:49:14;;;;;;;28.75;14.00;;;15.20;99.90;;;;;;5015562;28;20030;-61
2021/07/20 04:51:42;;;;;;;21.23;13.73;;;15.80;99.90;;;;;;5022810;28;20114;-63
2021/07/20 04:54:10;;;;;;;24.13;13.20;;;16.30;99.90;;;;;;5016787;28;20040;-62
2021/07/20 04:56:35;;;;;;;20.92;13.20;;;16.80;99.90;;;;;;5022544;28;20087;-62
2021/07/20 04:59:01;;;;;;;19.70;13.10;;;17.30;99.90;;;;;;5017725;28;20034;-63
2021/07/20 05:01:29;;;;;;;16.98;12.65;;;17.90;99.90;;;;;;5019898;28;20033;-61
2021/07/20 05:03:57;;;;;;;18.67;12.68;;;18.10;99.90;;;;;;5019986;28;20048;-63
2021/07/20 05:06:25;;;;;;;16.45;10.82;;;18.30;99.90;;;;;;5018877;28;20033;-63
2021/07/20 05:08:51;;;;;;;18.13;11.90;;;18.40;99.90;;;;;;5023985;28;20041;-62
2021/07/20 05:11:20;;;;;;;21.13;11.32;;;18.80;99.90;;;;;;5019440;28;20057;-62
2021/07/20 05:13:47;;;;;;;17.80;11.52;;;19.40;99.90;;;;;;5023560;28;20029;-63
2021/07/20 05:16:12;;;;;;;16.13;10.65;;;20.00;99.90;;;;;;5020073;28;20052;-63
2021/07/20 05:18:38;;;;;;;17.42;10.35;;;20.10;99.90;;;;;;5017158;28;20147;-63
2021/07/20 05:21:05;;;;;;;14.93;10.07;;;20.40;99.90;;;;;;5023108;28;20034;-63
2021/07/20 05:23:33;;;;;;;14.50;9.85;;;20.50;99.30;;;;;;5014079;28;20434;-64
2021/07/20 05:26:00;;;;;;;13.95;10.02;;;20.90;98.80;;;;;;5021822;28;20040;-61
2021/07/20 05:28:29;;;;;;;13.75;10.25;;;21.20;98.10;;;;;;5019001;28;20124;-62
2021/07/20 05:30:56;;;;;;;12.73;9.40;;;21.30;97.30;;;;;;5019443;28;20499;-61
2021/07/20 05:33:22;;;;;;;11.93;9.38;;;21.60;96.90;;;;;;5021245;28;20122;-63
2021/07/20 05:35:52;;;;;;;12.07;8.15;;;21.70;96.70;;;;;;4998812;28;20017;-60
2021/07/20 05:38:18;;;;;;;11.70;9.25;;;23.00;96.00;;;;;;5021471;28;20040;-62
2021/07/20 05:40:44;;;;;;;9.93;8.23;;;24.00;93.90;;;;;;5020379;28;20479;-61
2021/07/20 05:43:11;;;;;;;13.30;9.38;;;24.30;92.70;;;;;;5015368;28;20064;-59
2021/07/20 05:45:36;;;;;;;10.70;8.88;;;24.60;92.00;;;;;;5021871;28;20458;-61
2021/07/20 05:48:03;;;;;;;11.63;8.63;;;24.70;91.60;;;;;;5023761;28;20031;-62
2021/07/20 05:50:29;;;;;;;9.88;8.52;;;25.00;91.10;;;;;;5026030;28;20025;-60
2021/07/20 05:52:56;;;;;;;12.15;10.05;;;25.00;90.90;;;;;;5019496;28;20514;-62
2021/07/20 05:55:23;;;;;;;11.48;8.80;;;23.90;91.20;;;;;;5021576;28;20026;-61
2021/07/20 05:57:50;;;;;;;12.65;10.27;;;22.90;92.60;;;;;;5026648;28;20033;-61
2021/07/20 06:00:23;;;;;;;14.23;9.10;;;22.50;93.70;;;;;;5019263;28;21297;-61
2021/07/20 06:02:49;;;;;;;15.73;10.00;;;22.60;94.50;;;;;;5028159;28;20022;-62
2021/07/20 06:05:15;;;;;;;14.50;10.43;;;23.90;92.70;;;;;;5017949;28;20033;-61
2021/07/20 06:07:44;;;;;;;23.10;13.70;;;24.20;91.80;;;;;;5023396;28;20053;-60
2021/07/20 06:10:10;;;;;;;24.17;13.90;;;23.70;92.50;;;;;;5023537;28;20022;-62
2021/07/20 06:12:37;;;;;;;19.58;14.20;;;22.20;94.60;;;;;;5019703;28;20410;-61
2021/07/20 06:15:04;;;;;;;62.33;17.40;;;21.50;95.80;;;;;;5024505;28;20057;-61
2021/07/20 06:17:30;;;;;;;35.05;15.80;;;20.30;98.10;;;;;;5015935;28;20028;-63
2021/07/20 06:19:56;;;;;;;47.13;17.83;;;19.00;99.90;;;;;;5025448;28;20033;-62
2021/07/20 06:22:24;;;;;;;41.85;18.35;;;18.20;99.90;;;;;;5005185;28;20067;-63
2021/07/20 06:24:51;;;;;;;30.50;18.70;;;17.90;99.90;;;;;;5018694;28;20028;-61
2021/07/20 06:27:18;;;;;;;33.28;17.70;;;17.80;99.90;;;;;;5021099;28;20035;-63
2021/07/20 06:29:45;;;;;;;30.35;16.25;;;18.00;99.90;;;;;;5021002;28;20026;-63
2021/07/20 06:32:14;;;;;;;34.50;16.58;;;18.60;99.90;;;;;;5025292;28;20561;-63
2021/07/20 06:34:40;;;;;;;44.42;16.58;;;18.70;99.90;;;;;;5022406;28;20439;-61
2021/07/20 06:37:07;;;;;;;27.50;16.48;;;18.80;99.90;;;;;;5019128;28;20022;-63
2021/07/20 06:39:33;;;;;;;26.75;16.52;;;18.50;99.90;;;;;;5025445;28;20034;-63
2021/07/20 06:42:00;;;;;;;32.00;17.05;;;19.00;99.90;;;;;;5002776;28;20156;-63
2021/07/20 06:44:30;;;;;;;28.17;15.93;;;18.90;99.90;;;;;;5025011;28;20087;-63
2021/07/20 06:46:59;;;;;;;34.65;17.63;;;19.00;99.90;;;;;;5020432;28;20025;-63
2021/07/20 06:49:26;;;;;;;24.88;16.90;;;18.50;99.90;;;;;;5022436;28;20108;-63
2021/07/20 06:51:52;;;;;;;29.08;16.30;;;18.50;99.90;;;;;;5024766;28;20021;-63
2021/07/20 06:54:17;;;;;;;21.48;15.27;;;19.10;99.90;;;;;;5019524;28;20029;-63
2021/07/20 06:56:50;;;;;;;21.73;15.85;;;19.10;99.90;;;;;;5027850;28;20494;-63
2021/07/20 06:59:18;;;;;;;27.25;16.90;;;19.50;99.90;;;;;;5020975;28;20044;-64
2021/07/20 07:01:44;;;;;;;33.90;17.60;;;19.80;99.90;;;;;;5000756;28;20049;-62
2021/07/20 07:04:27;;;;;;;23.50;16.77;;;19.80;99.90;;;;;;5021791;28;20029;-63
2021/07/20 07:06:56;;;;;;;24.92;17.95;;;19.90;99.90;;;;;;5018972;28;20030;-62
2021/07/20 07:09:27;;;;;;;21.80;16.05;;;20.50;99.90;;;;;;5004389;28;20048;-63
2021/07/20 07:11:53;;;;;;;23.92;17.50;;;20.60;99.90;;;;;;5017145;28;20029;-63
2021/07/20 07:14:19;;;;;;;24.48;17.98;;;20.30;99.90;;;;;;5022870;28;20041;-63
2021/07/20 07:16:47;;;;;;;26.17;18.42;;;20.10;99.90;;;;;;5018912;28;20125;-63
2021/07/20 07:19:15;;;;;;;25.80;18.73;;;19.50;99.90;;;;;;5018939;28;20037;-63
2021/07/20 07:21:42;;;;;;;23.10;16.13;;;19.90;99.90;;;;;;5005903;28;20036;-63
2021/07/20 07:24:12;;;;;;;26.48;19.17;;;20.30;99.90;;;;;;5015935;28;20052;-62
2021/07/20 07:26:39;;;;;;;24.85;18.65;;;20.00;99.90;;;;;;5023724;28;20482;-62
2021/07/20 07:29:08;;;;;;;27.00;18.58;;;20.20;99.90;;;;;;5020566;28;20492;-63
2021/07/20 07:31:33;;;;;;;28.45;19.25;;;20.50;99.90;;;;;;5023441;28;20104;-61
2021/07/20 07:33:59;;;;;;;25.48;16.98;;;21.30;99.90;;;;;;5021873;28;20108;-63
2021/07/20 07:36:27;;;;;;;27.48;19.02;;;22.10;99.90;;;;;;5017670;28;20057;-63
2021/07/20 07:38:55;;;;;;;26.95;18.55;;;22.50;99.30;;;;;;5025206;28;20499;-63
2021/07/20 07:41:23;;;;;;;29.00;20.38;;;21.70;99.90;;;;;;5016825;28;20650;-63
2021/07/20 07:43:50;;;;;;;28.45;18.60;;;21.50;99.90;;;;;;5021779;28;20039;-62
2021/07/20 07:46:17;;;;;;;32.25;20.55;;;22.00;99.90;;;;;;5023219;28;20630;-62
2021/07/20 07:48:43;;;;;;;27.70;19.58;;;21.40;99.90;;;;;;5018415;28;20403;-63
2021/07/20 07:51:11;;;;;;;31.60;20.25;;;21.50;99.90;;;;;;5023856;28;20517;-63
2021/07/20 07:53:39;;;;;;;27.42;20.17;;;22.40;99.90;;;;;;5019858;28;20735;-63
2021/07/20 07:56:05;;;;;;;28.85;18.80;;;22.50;99.70;;;;;;5020543;28;20026;-64
2021/07/20 07:58:32;;;;;;;26.65;18.05;;;22.80;98.90;;;;;;5022452;28;20110;-63
2021/07/20 08:01:00;;;;;;;29.73;20.30;;;23.50;98.00;;;;;;5004488;28;20048;-63
2021/07/20 08:03:28;;;;;;;23.67;17.90;;;23.60;96.40;;;;;;5021532;28;20087;-62
2021/07/20 08:05:54;;;;;;;25.70;17.33;;;24.30;96.50;;;;;;5017865;28;20729;-62
2021/07/20 08:08:21;;;;;;;27.60;19.20;;;25.00;95.80;;;;;;5022682;28;20087;-62
2021/07/20 08:10:47;;;;;;;24.77;18.08;;;26.60;93.50;;;;;;5018127;28;20774;-62
2021/07/20 08:13:14;;;;;;;26.58;19.60;;;27.40;92.20;;;;;;5017083;28;20039;-61
2021/07/20 08:15:40;;;;;;;24.35;18.52;;;26.80;91.30;;;;;;5025244;28;20148;-62
2021/07/20 08:18:07;;;;;;;27.67;19.88;;;27.40;89.90;;;;;;5014885;28;20022;-62
2021/07/20 08:20:34;;;;;;;20.05;15.95;;;26.90;90.20;;;;;;5020700;28;20040;-62
2021/07/20 08:22:59;;;;;;;21.65;16.42;;;27.80;90.20;;;;;;5019683;28;20034;-62
2021/07/20 08:25:33;;;;;;;23.50;17.67;;;28.80;86.70;;;;;;5017080;28;20376;-62
2021/07/20 08:28:20;;;;;;;27.65;18.02;;;29.20;83.80;;;;;;5024426;28;20038;-62
2021/07/20 08:30:49;;;;;;;20.52;16.02;;;28.20;83.60;;;;;;5018751;28;20164;-62
2021/07/20 08:33:23;;;;;;;28.00;18.80;;;28.00;87.60;;;;;;5025001;28;20033;-62
2021/07/20 08:35:53;;;;;;;21.98;16.08;;;27.90;84.60;;;;;;5015221;28;20048;-62
2021/07/20 08:38:20;;;;;;;21.83;16.42;;;27.90;84.20;;;;;;5023330;28;20014;-62
2021/07/20 08:40:48;;;;;;;22.23;15.88;;;28.90;84.30;;;;;;5017067;28;20063;-62
2021/07/20 08:43:20;;;;;;;15.40;12.35;;;30.00;80.00;;;;;;5019415;28;21713;-61
2021/07/20 08:46:08;;;;;;;18.73;13.90;;;30.20;77.00;;;;;;5021101;28;20060;-63
2021/07/20 08:48:56;;;;;;;21.35;13.77;;;30.00;76.90;;;;;;4998072;28;20025;-63
2021/07/20 08:51:42;;;;;;;17.27;12.80;;;30.10;76.60;;;;;;5021908;28;20116;-63
2021/07/20 08:54:15;;;;;;;26.00;14.63;;;30.40;71.20;;;;;;5018600;28;20033;-63
2021/07/20 08:56:43;;;;;;;15.65;11.95;;;30.10;75.10;;;;;;5027664;28;20049;-62
2021/07/20 08:59:17;;;;;;;15.77;12.55;;;30.70;71.00;;;;;;5026184;28;20021;-62
2021/07/20 09:01:49;;;;;;;13.73;10.48;;;30.40;71.20;;;;;;5008431;28;20052;-63
2021/07/20 09:04:30;;;;;;;19.10;10.50;;;30.60;70.00;;;;;;5025986;28;20594;-63
2021/07/20 09:07:06;;;;;;;18.63;9.30;;;30.50;68.00;;;;;;5021088;28;20041;-63
2021/07/20 09:09:35;;;;;;;20.40;10.52;;;29.70;68.10;;;;;;5024946;28;20029;-63
2021/07/20 09:12:10;;;;;;;15.68;10.38;;;30.70;67.40;;;;;;5019106;28;20160;-63
2021/07/20 09:14:45;;;;;;;13.30;8.45;;;30.50;64.80;;;;;;5025830;28;20477;-60
2021/07/20 09:17:25;;;;;;;14.27;9.07;;;31.20;64.70;;;;;;5023321;28;20032;-61
2021/07/20 09:20:00;;;;;;;15.35;9.32;;;31.80;64.40;;;;;;5021424;28;20402;-62
2021/07/20 09:22:49;;;;;;;12.45;8.48;;;31.30;63.80;;;;;;5021039;28;20029;-63
2021/07/20 09:25:35;;;;;;;13.38;8.73;;;31.30;63.40;;;;;;5027651;28;20033;-62
2021/07/20 09:28:18;;;;;;;17.65;10.02;;;30.30;63.10;;;;;;5029457;28;20076;-62
2021/07/20 09:30:49;;;;;;;14.70;9.98;;;28.40;64.70;;;;;;5025122;28;20029;-62
2021/07/20 09:33:39;;;;;;;13.95;9.43;;;27.50;67.20;;;;;;5032104;28;20029;-61
2021/07/20 09:36:26;;;;;;;16.52;9.98;;;26.50;69.80;;;;;;5029532;28;20013;-61
2021/07/20 09:39:09;;;;;;;18.90;11.45;;;25.50;75.60;;;;;;5021374;28;20033;-61
2021/07/20 09:41:54;;;;;;;17.70;10.02;;;24.60;77.80;;;;;;5028494;28;20067;-61
2021/07/20 09:44:43;;;;;;;18.67;11.63;;;24.30;79.00;;;;;;5028956;28;20056;-60
2021/07/20 09:47:24;;;;;;;23.15;12.18;;;24.30;81.00;;;;;;5028347;28;20025;-62
2021/07/20 09:50:09;;;;;;;17.30;9.95;;;24.20;80.00;;;;;;5010236;28;20033;-61
2021/07/20 09:52:39;;;;;;;19.17;10.27;;;24.50;82.50;;;;;;5028201;28;20037;-62
2021/07/20 09:55:38;;;;;;;14.23;9.52;;;25.10;78.60;;;;;;5031768;28;20013;-61
2021/07/20 09:58:25;;;;;;;22.73;11.38;;;25.80;78.50;;;;;;5031290;28;20446;-62
2021/07/20 10:01:14;;;;;;;16.45;9.80;;;26.20;75.70;;;;;;5032888;28;20028;-62
2021/07/20 10:04:25;;;;;;;17.05;10.65;;;26.60;75.30;;;;;;5018574;28;20556;-62
2021/07/20 10:07:11;;;;;;;19.67;9.82;;;27.50;72.60;;;;;;4955424;28;20058;-62
2021/07/20 10:09:47;;;;;;;19.30;9.77;;;28.20;71.20;;;;;;5024858;28;20402;-62
2021/07/20 10:12:35;;;;;;;14.82;8.40;;;28.30;70.70;;;;;;5013226;28;20029;-62
2021/07/20 10:15:10;;;;;;;16.10;9.65;;;28.80;68.50;;;;;;5028337;28;20064;-62
2021/07/20 10:17:46;;;;;;;13.00;8.90;;;28.20;67.90;;;;;;5028386;28;20128;-61
2021/07/20 10:20:40;;;;;;;14.68;9.32;;;28.60;67.00;;;;;;5034426;28;20482;-61
2021/07/20 10:23:22;;;;;;;20.17;9.05;;;28.10;69.00;;;;;;5014595;28;20061;-61
2021/07/20 10:26:09;;;;;;;16.15;8.85;;;27.60;67.60;;;;;;5032069;28;20025;-62
2021/07/20 10:29:07;;;;;;;12.82;9.43;;;27.50;70.40;;;;;;5033540;28;20156;-61
2021/07/20 10:32:02;;;;;;;15.10;9.02;;;27.40;71.30;;;;;;5020905;28;20049;-62
2021/07/20 10:34:28;;;;;;;12.25;9.38;;;27.60;70.60;;;;;;5027259;28;20422;-61
2021/07/20 10:37:02;;;;;;;12.95;9.60;;;27.10;69.40;;;;;;5018353;28;20076;-61
2021/07/20 10:39:45;;;;;;;;;;;27.00;70.60;;;;;;5028837;28;20537;-61
2021/07/20 10:42:24;;;;;;;18.03;9.70;;;26.80;73.30;;;;;;5034301;28;19909;-60
2021/07/20 10:45:02;;;;;;;16.52;9.95;;;26.50;70.80;;;;;;5028264;28;20769;-61
2021/07/20 10:47:44;;;;;;;14.27;9.32;;;26.20;71.80;;;;;;5022536;28;20052;-61
2021/07/20 10:50:34;;;;;;;14.27;8.82;;;26.00;73.30;;;;;;5030187;28;20052;-60
2021/07/20 10:53:35;;;;;;;14.05;9.23;;;26.00;71.40;;;;;;5009834;28;20120;-62
2021/07/20 10:56:25;;;;;;;19.65;8.93;;;25.50;72.00;;;;;;5033579;28;20021;-60
2021/07/20 10:59:09;;;;;;;15.70;9.80;;;25.30;73.10;;;;;;5027414;28;20560;-60
2021/07/20 11:01:45;;;;;;;15.10;9.40;;;24.90;73.30;;;;;;5026756;28;20051;-61
2021/07/20 11:04:47;;;;;;;13.57;8.95;;;25.10;74.70;;;;;;5027664;28;20151;-62
2021/07/20 11:07:21;;;;;;;14.20;8.68;;;25.50;74.30;;;;;;5030490;28;20064;-61
2021/07/20 11:09:49;;;;;;;16.45;9.07;;;25.50;73.00;;;;;;5027456;28;20094;-61
2021/07/20 11:12:15;;;;;;;14.25;9.75;;;25.10;74.50;;;;;;5024602;28;20033;-61
2021/07/20 11:14:48;;;;;;;14.82;9.93;;;24.20;76.10;;;;;;5030354;28;20044;-61
2021/07/20 11:17:16;;;;;;;17.23;10.65;;;23.80;76.30;;;;;;5027849;28;20024;-59
2021/07/20 11:19:43;;;;;;;14.88;9.82;;;23.70;77.20;;;;;;5012662;28;20399;-60
2021/07/20 11:22:09;;;;;;;18.27;9.73;;;23.40;78.90;;;;;;5031081;28;20013;-61
2021/07/20 11:24:35;;;;;;;16.05;10.15;;;23.20;81.60;;;;;;5030244;28;20037;-61
2021/07/20 11:27:02;;;;;;;19.08;10.50;;;23.20;80.50;;;;;;5028969;28;20499;-62
2021/07/20 11:29:32;;;;;;;13.07;9.15;;;23.70;83.90;;;;;;5028156;28;20571;-63
2021/07/20 11:32:06;;;;;;;18.33;9.02;;;24.50;81.00;;;;;;5028591;28;20394;-61
2021/07/20 11:34:42;;;;;;;14.57;9.48;;;25.00;79.10;;;;;;5027184;28;20029;-64
2021/07/20 11:37:13;;;;;;;16.58;9.27;;;25.30;77.00;;;;;;5028327;28;20029;-63
2021/07/20 11:39:48;;;;;;;12.98;8.57;;;25.70;74.30;;;;;;5028030;28;20025;-64
2021/07/20 11:42:27;;;;;;;15.57;8.85;;;25.40;75.90;;;;;;5028802;28;20033;-63
2021/07/20 11:44:57;;;;;;;11.02;8.20;;;25.40;74.50;;;;;;5010152;28;20067;-63
2021/07/20 11:47:31;;;;;;;13.75;9.23;;;25.00;74.90;;;;;;5026911;28;20383;-63
2021/07/20 11:50:08;;;;;;;11.80;7.97;;;24.80;77.90;;;;;;5025718;28;20502;-63
2021/07/20 11:52:46;;;;;;;12.00;7.97;;;24.60;77.80;;;;;;5018089;28;20036;-63
2021/07/20 11:55:29;;;;;;;12.85;7.90;;;24.70;77.40;;;;;;5021464;28;20467;-64
2021/07/20 11:58:27;;;;;;;13.57;8.68;;;24.80;78.10;;;;;;5023218;28;20418;-64
2021/07/20 12:01:31;;;;;;;13.60;7.88;;;24.60;78.20;;;;;;5006221;28;20034;-63
2021/07/20 12:04:34;;;;;;;13.85;8.45;;;24.60;80.40;;;;;;5008909;28;20041;-63
2021/07/20 12:07:14;;;;;;;11.50;8.05;;;24.70;79.10;;;;;;5024662;28;20056;-63
2021/07/20 12:10:05;;;;;;;12.65;7.60;;;25.00;78.70;;;;;;5105999;27;20136;-63
2021/07/20 12:12:45;;;;;;;12.07;8.43;;;25.20;73.80;;;;;;5084573;28;20032;-63
2021/07/20 12:15:16;;;;;;;10.82;7.75;;;25.20;74.40;;;;;;5085343;28;20028;-63
2021/07/20 12:17:45;;;;;;;11.75;7.88;;;25.00;72.00;;;;;;5088497;28;20443;-63
2021/07/20 12:20:14;;;;;;;14.43;8.40;;;25.30;72.90;;;;;;5084306;28;20417;-63
2021/07/20 12:22:40;;;;;;;11.63;7.38;;;25.30;73.70;;;;;;5080828;28;20036;-63
2021/07/20 12:25:08;;;;;;;12.07;7.80;;;25.20;74.40;;;;;;5067533;28;20025;-63
2021/07/20 12:27:36;;;;;;;10.55;7.53;;;25.40;75.10;;;;;;5075983;28;20078;-63
2021/07/20 12:30:07;;;;;;;12.60;7.50;;;25.20;74.80;;;;;;5074115;28;20028;-63
2021/07/20 12:32:34;;;;;;;11.73;7.25;;;25.10;73.90;;;;;;5072122;28;20047;-62
2021/07/20 12:35:00;;;;;;;11.85;7.82;;;25.10;74.70;;;;;;5082273;28;20413;-63
2021/07/20 12:37:26;;;;;;;11.48;8.18;;;25.00;74.70;;;;;;5068949;28;20110;-63
2021/07/20 12:40:00;;;;;;;12.15;7.70;;;24.90;74.30;;;;;;5075254;28;20056;-62
2021/07/20 12:42:40;;;;;;;16.42;8.82;;;25.10;76.30;;;;;;5067409;28;20021;-63
2021/07/20 12:45:11;;;;;;;12.65;8.75;;;25.30;75.40;;;;;;5077422;28;20027;-63
2021/07/20 12:47:39;;;;;;;16.95;9.82;;;25.30;77.90;;;;;;5076290;28;20517;-61
2021/07/20 12:50:06;;;;;;;13.77;8.82;;;25.20;77.20;;;;;;5077338;28;20016;-62
2021/07/20 12:52:36;;;;;;;12.90;8.27;;;24.90;75.60;;;;;;5070417;28;20036;-62
2021/07/20 12:55:09;;;;;;;13.38;8.13;;;25.20;74.40;;;;;;5068580;28;20032;-62